createdAt,value
2023-02-26T00:04:23.057Z,3.25
2023-02-26T00:09:27.217Z,3.08
2023-02-26T00:14:30.511Z,2.69
2023-02-26T00:19:33.946Z,2.39
2023-02-26T00:24:38.039Z,2.36
2023-02-26T00:29:41.392Z,2.30
2023-02-26T00:34:47.161Z,2.56
2023-02-26T00:40:00.713Z,2.27
2023-02-26T00:45:04.938Z,-0.80
2023-02-26T00:50:17.325Z,-0.16
2023-02-26T00:55:22.418Z,2.36
2023-02-26T01:00:25.498Z,2.37
2023-02-26T01:05:29.065Z,2.23
2023-02-26T01:10:34.421Z,2.62
2023-02-26T01:15:38.254Z,2.35
2023-02-26T01:20:49.295Z,2.71
2023-02-26T01:25:57.878Z,2.19
2023-02-26T01:31:05.329Z,2.59
2023-02-26T01:36:10.585Z,1.43
2023-02-26T01:41:30.508Z,2.53
2023-02-26T01:46:38.343Z,2.63
2023-02-26T01:51:47.701Z,2.97
2023-02-26T01:56:57.433Z,3.12
2023-02-26T02:02:03.912Z,2.97
2023-02-26T02:07:09.128Z,2.18
2023-02-26T02:12:27.945Z,2.06
2023-02-26T02:17:39.982Z,1.47
2023-02-26T02:23:10.405Z,1.83
2023-02-26T02:28:31.451Z,2.03
2023-02-26T02:33:43.535Z,2.13
2023-02-26T02:38:52.301Z,1.57
2023-02-26T02:44:03.120Z,1.62
2023-02-26T02:49:10.849Z,1.63
2023-02-26T02:54:21.175Z,1.80
2023-02-26T02:59:29.721Z,1.67
2023-02-26T03:04:33.938Z,1.01
2023-02-26T03:09:39.284Z,1.56
2023-02-26T03:14:43.746Z,1.36
2023-02-26T03:20:01.185Z,1.42
2023-02-26T03:25:10.713Z,1.80
2023-02-26T03:30:19.284Z,1.01
2023-02-26T03:35:35.636Z,1.73
2023-02-26T03:40:47.065Z,2.13
2023-02-26T03:45:55.663Z,1.05
2023-02-26T03:51:06.071Z,1.90
2023-02-26T03:56:40.274Z,1.86
2023-02-26T04:01:53.343Z,1.59
2023-02-26T04:07:01.150Z,1.66
2023-02-26T04:12:04.750Z,1.57
2023-02-26T04:17:08.379Z,1.28
2023-02-26T04:22:13.160Z,0.68
2023-02-26T04:27:16.040Z,1.60
2023-02-26T04:32:19.620Z,1.50
2023-02-26T04:37:25.475Z,1.47
2023-02-26T04:42:28.419Z,-1.72
2023-02-26T04:47:31.288Z,1.27
2023-02-26T04:52:35.347Z,-0.55
2023-02-26T04:57:38.590Z,2.16
2023-02-26T05:02:43.820Z,2.39
2023-02-26T05:07:47.992Z,1.40
2023-02-26T05:12:55.770Z,1.54
2023-02-26T05:17:58.711Z,0.75
2023-02-26T05:23:02.906Z,1.13
2023-02-26T05:28:05.980Z,0.80
2023-02-26T05:33:09.110Z,1.09
2023-02-26T05:38:13.615Z,1.43
2023-02-26T05:43:16.357Z,0.85
2023-02-26T05:48:19.202Z,0.98
2023-02-26T05:53:23.634Z,0.91
2023-02-26T05:58:26.332Z,0.49
2023-02-26T06:03:29.180Z,0.68
2023-02-26T06:08:33.705Z,-0.80
2023-02-26T06:13:36.850Z,0.77
2023-02-26T06:18:39.953Z,0.72
2023-02-26T06:23:43.968Z,1.58
2023-02-26T06:28:46.625Z,0.79
2023-02-26T06:33:49.407Z,1.41
2023-02-26T06:38:53.490Z,0.78
2023-02-26T06:43:56.345Z,1.90
2023-02-26T06:49:01.020Z,2.18
2023-02-26T06:54:05.883Z,1.85
2023-02-26T06:59:11.456Z,1.53
2023-02-26T07:04:14.257Z,1.71
2023-02-26T07:09:21.122Z,1.49
2023-02-26T07:14:23.731Z,2.11
2023-02-26T07:19:26.520Z,1.99
2023-02-26T07:24:33.334Z,1.87
2023-02-26T07:29:38.408Z,2.58
2023-02-26T07:34:47.173Z,2.12
2023-02-26T07:39:56.560Z,2.35
2023-02-26T07:45:00.789Z,2.47
2023-02-26T07:50:03.630Z,2.06
2023-02-26T07:55:13.834Z,2.96
2023-02-26T08:00:20.719Z,3.03
2023-02-26T08:05:23.906Z,2.60
2023-02-26T08:10:36.881Z,2.88
2023-02-26T08:15:41.775Z,3.06
2023-02-26T08:20:58.342Z,3.22
2023-02-26T08:26:12.343Z,1.87
2023-02-26T08:31:15.690Z,2.39
2023-02-26T08:36:22.212Z,2.98
2023-02-26T08:41:27.634Z,3.32
2023-02-26T08:46:32.620Z,3.12
2023-02-26T08:51:35.388Z,3.30
2023-02-26T08:56:41.763Z,3.34
2023-02-26T09:01:44.411Z,3.48
2023-02-26T09:06:47.167Z,3.30
2023-02-26T09:11:51.351Z,3.43
2023-02-26T09:16:53.999Z,3.60
2023-02-26T09:21:56.681Z,3.47
2023-02-26T09:27:03.469Z,3.73
2023-02-26T09:32:11.931Z,4.01
2023-02-26T09:37:14.886Z,3.78
2023-02-26T09:42:29.646Z,4.22
2023-02-26T09:47:42.914Z,4.18
2023-02-26T09:52:53.285Z,4.26
2023-02-26T09:58:01.706Z,4.31
2023-02-26T10:03:17.890Z,4.40
2023-02-26T10:08:22.635Z,4.27
2023-02-26T10:13:49.009Z,4.53
2023-02-26T10:19:11.238Z,4.34
2023-02-26T10:24:17.760Z,4.22
2023-02-26T10:29:28.212Z,4.79
2023-02-26T10:34:36.993Z,4.71
2023-02-26T10:39:45.637Z,4.70
2023-02-26T10:44:57.833Z,4.15
2023-02-26T10:50:04.130Z,4.45
2023-02-26T10:55:22.665Z,4.61
2023-02-26T11:00:26.928Z,4.54
2023-02-26T11:05:35.306Z,4.50
2023-02-26T11:10:43.195Z,4.78
2023-02-26T11:15:54.323Z,4.69
2023-02-26T11:21:01.210Z,4.89
2023-02-26T11:26:07.562Z,5.18
2023-02-26T11:31:16.069Z,4.83
2023-02-26T11:36:20.978Z,5.42
2023-02-26T11:41:28.963Z,5.75
2023-02-26T11:46:42.661Z,5.74
2023-02-26T11:51:49.284Z,4.84
2023-02-26T11:57:01.775Z,5.67
2023-02-26T12:02:16.025Z,5.73
2023-02-26T12:07:28.174Z,6.00
2023-02-26T12:13:20.685Z,5.61
2023-02-26T12:18:37.306Z,5.78
2023-02-26T12:24:10.106Z,6.37
2023-02-26T12:29:30.365Z,6.48
2023-02-26T12:35:24.184Z,5.40
2023-02-26T12:40:52.667Z,6.37
2023-02-26T12:46:05.906Z,6.63
2023-02-26T12:51:24.457Z,5.07
2023-02-26T12:56:53.905Z,6.04
2023-02-26T13:02:25.000Z,5.08
2023-02-26T13:07:52.455Z,6.08
2023-02-26T13:13:14.953Z,5.91
2023-02-26T13:18:24.633Z,5.99
2023-02-26T13:23:39.344Z,3.31
2023-02-26T13:28:53.626Z,5.03
2023-02-26T13:35:58.906Z,5.73
2023-02-26T13:40:24.329Z,7.56
2023-02-26T13:45:49.890Z,7.66
2023-02-26T14:06:36.047Z,8.57
2023-02-26T14:12:39.133Z,6.06
2023-02-26T14:18:38.796Z,7.75
2023-02-26T14:24:12.682Z,8.33
2023-02-26T14:41:53.719Z,7.81
2023-02-26T14:47:39.966Z,7.27
2023-02-26T15:00:24.677Z,7.17
2023-02-26T15:05:49.294Z,7.01
2023-02-26T15:17:23.819Z,5.44
2023-02-26T15:23:13.453Z,7.15
2023-02-26T15:28:40.322Z,5.93
2023-02-26T15:34:14.688Z,4.99
2023-02-26T15:41:50.805Z,6.24
2023-02-26T15:46:14.972Z,5.25
2023-02-26T15:51:47.735Z,4.50
2023-02-26T15:57:05.989Z,6.35
2023-02-26T16:03:14.627Z,5.83
2023-02-26T16:08:58.917Z,3.22
2023-02-26T16:15:07.189Z,5.24
2023-02-26T16:35:48.691Z,5.33
2023-02-26T16:41:02.339Z,6.27
2023-02-26T16:46:07.762Z,6.27
2023-02-26T16:51:16.647Z,5.51
2023-02-26T16:56:22.126Z,3.98
2023-02-26T17:01:27.850Z,4.74
2023-02-26T17:06:49.246Z,5.97
2023-02-26T17:12:04.701Z,5.91
2023-02-26T17:17:17.087Z,5.26
2023-02-26T17:22:48.675Z,4.56
2023-02-26T17:28:35.740Z,5.89
2023-02-26T17:33:49.882Z,3.80
2023-02-26T17:39:19.818Z,3.34
2023-02-26T17:44:26.691Z,5.82
2023-02-26T17:55:18.682Z,5.75
2023-02-26T18:00:44.531Z,2.97
2023-02-26T18:06:15.904Z,3.55
2023-02-26T18:17:32.153Z,3.18
2023-02-26T18:22:39.619Z,5.19
2023-02-26T18:27:46.440Z,3.91
2023-02-26T18:33:10.333Z,3.37
2023-02-26T18:52:31.351Z,2.86
2023-02-26T19:04:56.882Z,1.56
2023-02-26T19:10:57.385Z,4.21
2023-02-26T19:16:26.912Z,3.24
2023-02-26T19:21:50.162Z,4.56
2023-02-26T19:26:56.049Z,0.94
2023-02-26T19:32:22.240Z,1.16
2023-02-26T19:37:26.952Z,3.88
2023-02-26T19:42:30.032Z,2.93
2023-02-26T19:47:37.071Z,4.87
2023-02-26T19:52:44.626Z,4.93
2023-02-26T20:13:43.169Z,4.81
2023-02-26T20:31:55.293Z,1.71
2023-02-26T20:36:59.248Z,4.61
2023-02-26T20:42:02.517Z,4.81
2023-02-26T20:47:06.782Z,3.69
2023-02-26T20:52:10.104Z,4.26
2023-02-26T20:57:13.390Z,4.73
2023-02-26T21:02:20.538Z,2.21
2023-02-26T21:07:23.349Z,3.80
2023-02-26T21:12:28.324Z,4.35
2023-02-26T21:17:33.440Z,4.32
2023-02-26T21:22:36.602Z,4.08
2023-02-26T21:27:39.791Z,4.75
2023-02-26T21:32:44.518Z,4.18
2023-02-26T21:37:50.092Z,4.46
2023-02-26T21:42:53.026Z,4.73
2023-02-26T21:47:57.504Z,4.57
2023-02-26T21:53:01.038Z,3.67
2023-02-26T21:58:03.913Z,3.94
2023-02-26T22:03:08.070Z,4.57
2023-02-26T22:08:11.634Z,3.81
2023-02-26T22:13:14.644Z,2.51
2023-02-26T22:18:18.892Z,3.50
2023-02-26T22:23:21.620Z,1.86
2023-02-26T22:28:24.339Z,2.96
2023-02-26T22:33:28.793Z,2.91
2023-02-26T22:38:31.553Z,2.80
2023-02-26T22:43:34.793Z,2.82
2023-02-26T22:49:15.643Z,2.87
2023-02-26T22:54:18.534Z,3.82
2023-02-26T22:59:21.260Z,3.65
2023-02-26T23:04:25.284Z,3.47
2023-02-26T23:09:28.283Z,3.58
2023-02-26T23:14:31.165Z,3.30
2023-02-26T23:19:35.334Z,2.97
2023-02-26T23:24:38.097Z,1.96
2023-02-26T23:29:43.593Z,3.51
2023-02-26T23:34:47.628Z,3.21
2023-02-26T23:39:50.347Z,1.37
2023-02-26T23:44:53.026Z,2.29
2023-02-26T23:50:00.181Z,2.92
2023-02-26T23:55:02.939Z,3.16
